createdAt,value
2019-03-04T00:01:30.867Z,5.32
2019-03-04T00:04:01.778Z,5.40
2019-03-04T00:06:32.413Z,5.18
2019-03-04T00:09:02.830Z,5.30
2019-03-04T00:11:34.970Z,5.02
2019-03-04T00:14:05.330Z,5.02
2019-03-04T00:16:36.161Z,5.07
2019-03-04T00:19:06.576Z,5.21
2019-03-04T00:21:37.931Z,5.46
2019-03-04T00:24:08.359Z,5.37
2019-03-04T00:26:39.018Z,5.33
2019-03-04T00:29:11.483Z,5.53
2019-03-04T00:31:41.956Z,5.48
2019-03-04T00:34:12.586Z,5.34
2019-03-04T00:36:43.968Z,5.39
2019-03-04T00:39:14.297Z,5.46
2019-03-04T00:41:44.803Z,5.48
2019-03-04T00:44:15.524Z,5.43
2019-03-04T00:46:47.206Z,5.44
2019-03-04T00:49:17.460Z,5.51
2019-03-04T00:51:47.837Z,5.46
2019-03-04T00:54:18.427Z,5.38
2019-03-04T00:56:48.763Z,5.57
2019-03-04T00:59:19.154Z,5.58
2019-03-04T01:01:49.859Z,5.57
2019-03-04T01:04:20.152Z,5.51
2019-03-04T01:06:50.726Z,5.52
2019-03-04T01:09:21.502Z,5.78
2019-03-04T01:11:52.043Z,5.60
2019-03-04T01:14:22.692Z,5.52
2019-03-04T01:16:53.142Z,5.69
2019-03-04T01:19:23.493Z,5.63
2019-03-04T01:21:54.195Z,5.57
2019-03-04T01:24:24.537Z,5.51
2019-03-04T01:26:54.875Z,5.54
2019-03-04T01:29:25.530Z,5.32
2019-03-04T01:31:56.046Z,5.64
2019-03-04T01:34:26.438Z,5.44
2019-03-04T01:36:57.120Z,5.50
2019-03-04T01:39:27.905Z,5.61
2019-03-04T01:41:58.272Z,5.51
2019-03-04T01:44:28.852Z,5.64
2019-03-04T01:46:59.563Z,5.68
2019-03-04T01:49:29.874Z,5.42
2019-03-04T01:52:00.250Z,5.21
2019-03-04T01:54:30.931Z,5.13
2019-03-04T01:57:01.271Z,4.90
2019-03-04T01:59:31.588Z,4.71
2019-03-04T02:02:02.263Z,4.59
2019-03-04T02:04:32.668Z,4.50
2019-03-04T02:07:03.015Z,4.41
2019-03-04T02:09:34.012Z,3.98
2019-03-04T02:12:04.702Z,4.17
2019-03-04T02:14:35.034Z,4.01
2019-03-04T02:17:05.400Z,3.80
2019-03-04T02:19:35.809Z,3.74
2019-03-04T02:22:06.183Z,3.52
2019-03-04T02:24:37.541Z,3.42
2019-03-04T02:27:07.878Z,3.43
2019-03-04T02:29:38.601Z,3.36
2019-03-04T02:32:09.069Z,3.32
2019-03-04T02:34:39.422Z,3.21
2019-03-04T02:37:10.462Z,3.12
2019-03-04T02:39:41.070Z,3.08
2019-03-04T02:42:11.391Z,2.94
2019-03-04T02:44:42.149Z,2.88
2019-03-04T02:47:12.860Z,2.95
2019-03-04T02:49:43.160Z,2.79
2019-03-04T02:52:13.530Z,2.75
2019-03-04T02:54:43.939Z,2.76
2019-03-04T02:57:14.638Z,2.59
2019-03-04T02:59:45.371Z,2.30
2019-03-04T03:02:15.682Z,2.07
2019-03-04T03:04:46.413Z,1.80
2019-03-04T03:07:17.174Z,1.74
2019-03-04T03:09:47.603Z,1.56
2019-03-04T03:12:18.116Z,1.64
2019-03-04T03:14:48.814Z,1.76
2019-03-04T03:17:19.214Z,2.02
2019-03-04T03:19:49.554Z,2.32
2019-03-04T03:22:20.118Z,2.36
2019-03-04T03:24:50.758Z,2.23
2019-03-04T03:27:21.525Z,2.05
2019-03-04T03:29:52.213Z,2.03
2019-03-04T03:32:22.913Z,2.09
2019-03-04T03:34:54.642Z,2.02
2019-03-04T03:37:25.131Z,1.96
2019-03-04T03:39:55.502Z,1.86
2019-03-04T03:42:26.284Z,1.80
2019-03-04T03:44:56.631Z,1.80
2019-03-04T03:47:26.895Z,1.76
2019-03-04T03:49:57.304Z,1.76
2019-03-04T03:52:27.711Z,1.86
2019-03-04T03:54:58.107Z,1.88
2019-03-04T03:57:28.858Z,1.85
2019-03-04T03:59:59.616Z,1.73
2019-03-04T04:02:29.955Z,1.76
2019-03-04T04:05:00.722Z,1.80
2019-03-04T04:07:31.379Z,1.75
2019-03-04T04:10:01.847Z,1.73
2019-03-04T04:12:33.354Z,1.73
2019-03-04T04:15:04.367Z,1.64
2019-03-04T04:17:34.722Z,1.60
2019-03-04T04:20:06.237Z,1.68
2019-03-04T04:22:36.720Z,1.66
2019-03-04T04:25:07.720Z,1.61
2019-03-04T04:27:38.330Z,1.58
2019-03-04T04:30:09.398Z,1.53
2019-03-04T04:32:39.947Z,1.48
2019-03-04T04:35:11.244Z,1.42
2019-03-04T04:37:41.604Z,1.29
2019-03-04T04:40:12.394Z,1.50
2019-03-04T04:42:42.888Z,1.43
2019-03-04T04:45:13.409Z,1.35
2019-03-04T04:47:43.703Z,1.28
2019-03-04T04:50:14.610Z,1.39
2019-03-04T04:52:45.075Z,1.40
2019-03-04T04:55:15.450Z,1.38
2019-03-04T04:57:46.011Z,1.43
2019-03-04T05:00:16.704Z,1.50
2019-03-04T05:02:47.380Z,1.57
2019-03-04T05:05:17.809Z,1.39
2019-03-04T05:07:48.120Z,1.33
2019-03-04T05:10:19.235Z,1.28
2019-03-04T05:12:49.777Z,1.44
2019-03-04T05:15:20.050Z,1.25
2019-03-04T05:17:50.765Z,1.29
2019-03-04T05:20:22.358Z,1.35
2019-03-04T05:22:52.713Z,1.24
2019-03-04T05:25:23.515Z,1.39
2019-03-04T05:27:54.322Z,1.45
2019-03-04T05:30:24.863Z,1.40
2019-03-04T05:32:55.423Z,1.33
2019-03-04T05:35:25.808Z,1.22
2019-03-04T05:37:56.442Z,1.29
2019-03-04T05:40:28.348Z,1.54
2019-03-04T05:42:58.779Z,1.79
2019-03-04T05:45:29.628Z,1.83
2019-03-04T05:48:00.249Z,1.90
2019-03-04T05:50:31.562Z,1.97
2019-03-04T05:53:02.232Z,2.07
2019-03-04T05:55:32.977Z,2.20
2019-03-04T05:58:03.407Z,2.28
2019-03-04T06:00:38.498Z,2.45
2019-03-04T06:03:09.678Z,2.54
2019-03-04T06:05:40.559Z,2.49
2019-03-04T06:08:11.275Z,2.59
2019-03-04T06:10:41.678Z,2.73
2019-03-04T06:13:12.209Z,2.81
2019-03-04T06:15:42.661Z,3.04
2019-03-04T06:18:13.019Z,3.14
2019-03-04T06:20:43.553Z,3.07
2019-03-04T06:23:14.543Z,3.19
2019-03-04T06:25:44.919Z,3.41
2019-03-04T06:28:15.359Z,3.55
2019-03-04T06:30:46.167Z,3.76
2019-03-04T06:33:16.609Z,3.86
2019-03-04T06:35:47.346Z,3.93
2019-03-04T06:38:17.636Z,3.98
2019-03-04T06:40:48.085Z,3.96
2019-03-04T06:43:18.874Z,4.02
2019-03-04T06:45:49.265Z,3.86
2019-03-04T06:48:19.558Z,4.14
2019-03-04T06:50:54.673Z,4.30
2019-03-04T06:53:44.388Z,4.36
2019-03-04T06:56:35.106Z,4.48
2019-03-04T06:59:13.569Z,4.56
2019-03-04T07:01:48.159Z,4.70
2019-03-04T07:04:32.534Z,4.85
2019-03-04T07:07:03.158Z,5.18
2019-03-04T07:09:33.504Z,5.15
2019-03-04T07:12:04.073Z,5.44
2019-03-04T07:14:34.428Z,5.40
2019-03-04T07:17:04.751Z,5.45
2019-03-04T07:19:37.077Z,5.46
2019-03-04T07:22:07.475Z,5.65
2019-03-04T07:24:37.789Z,5.88
2019-03-04T07:27:08.523Z,5.94
2019-03-04T07:29:39.274Z,6.08
2019-03-04T07:32:09.925Z,6.20
2019-03-04T07:34:40.436Z,6.44
2019-03-04T07:37:11.027Z,6.52
2019-03-04T07:39:41.388Z,6.55
2019-03-04T07:42:13.145Z,6.61
2019-03-04T07:44:43.526Z,6.82
2019-03-04T07:47:14.252Z,6.90
2019-03-04T07:49:49.566Z,7.19
2019-03-04T07:52:19.989Z,7.15
2019-03-04T07:54:50.688Z,7.29
2019-03-04T07:57:21.582Z,7.41
2019-03-04T07:59:52.049Z,7.42
2019-03-04T08:02:22.666Z,7.57
2019-03-04T08:04:53.354Z,7.66
2019-03-04T08:07:45.317Z,7.81
2019-03-04T08:10:42.519Z,7.88
2019-03-04T08:13:17.732Z,8.01
2019-03-04T08:15:50.427Z,8.00
2019-03-04T08:18:20.772Z,8.31
2019-03-04T08:20:51.604Z,8.56
2019-03-04T08:23:22.052Z,8.70
2019-03-04T08:25:52.383Z,8.57
2019-03-04T08:28:23.285Z,8.67
2019-03-04T08:30:53.943Z,9.08
2019-03-04T08:33:24.276Z,9.02
2019-03-04T08:35:55.351Z,9.12
2019-03-04T08:38:26.022Z,9.04
2019-03-04T08:40:56.368Z,9.03
2019-03-04T08:43:26.968Z,9.26
2019-03-04T08:45:58.827Z,9.17
2019-03-04T08:48:29.265Z,9.14
2019-03-04T08:51:02.253Z,9.41
2019-03-04T08:53:32.058Z,9.73
2019-03-04T08:56:02.656Z,9.66
2019-03-04T08:58:34.380Z,9.78
2019-03-04T09:01:04.995Z,9.69
2019-03-04T09:03:35.622Z,9.78
2019-03-04T09:06:06.298Z,10.13
2019-03-04T09:08:36.642Z,10.16
2019-03-04T09:11:06.974Z,10.30
2019-03-04T09:13:37.392Z,10.38
2019-03-04T09:16:07.675Z,10.75
2019-03-04T09:18:38.632Z,10.78
2019-03-04T09:21:09.067Z,10.74
2019-03-04T09:23:39.745Z,10.74
2019-03-04T09:26:11.715Z,10.92
2019-03-04T09:28:42.100Z,11.16
2019-03-04T09:31:13.558Z,11.50
2019-03-04T09:33:44.513Z,11.53
2019-03-04T09:36:14.837Z,11.92
2019-03-04T09:38:45.225Z,11.81
2019-03-04T09:41:15.794Z,12.03
2019-03-04T09:43:46.195Z,12.52
2019-03-04T09:46:16.488Z,12.87
2019-03-04T09:48:47.186Z,12.80
2019-03-04T09:51:24.405Z,13.35
2019-03-04T09:53:50.242Z,13.45
2019-03-04T09:56:20.657Z,14.35
2019-03-04T09:58:51.050Z,14.46
2019-03-04T10:01:28.942Z,15.25
2019-03-04T10:04:19.122Z,15.60
2019-03-04T10:07:08.342Z,15.43
2019-03-04T10:10:11.710Z,15.31
2019-03-04T10:13:23.562Z,14.95
2019-03-04T10:16:41.073Z,14.01
2019-03-04T10:19:36.226Z,14.34
2019-03-04T10:22:33.484Z,13.91
2019-03-04T10:25:38.966Z,14.36
2019-03-04T10:28:44.623Z,14.31
2019-03-04T10:31:48.709Z,14.14
2019-03-04T10:34:58.581Z,14.48
2019-03-04T10:38:11.707Z,14.28
2019-03-04T10:40:57.743Z,14.62
2019-03-04T10:44:10.488Z,15.18
2019-03-04T10:46:52.442Z,15.57
2019-03-04T10:49:22.847Z,14.94
2019-03-04T10:51:53.462Z,15.16
2019-03-04T10:54:24.482Z,15.05
2019-03-04T10:56:54.777Z,15.08
2019-03-04T10:59:25.224Z,14.60
2019-03-04T11:01:55.619Z,14.71
2019-03-04T11:04:26.344Z,14.83
2019-03-04T11:06:57.133Z,14.54
2019-03-04T11:09:27.457Z,15.19
2019-03-04T11:11:57.909Z,15.26
2019-03-04T11:14:28.455Z,15.56
2019-03-04T11:16:58.748Z,15.00
2019-03-04T11:19:29.153Z,15.45
2019-03-04T11:21:59.697Z,15.38
2019-03-04T11:24:30.496Z,15.49
2019-03-04T11:27:00.801Z,16.04
2019-03-04T11:29:31.645Z,16.24
2019-03-04T11:32:02.246Z,16.38
2019-03-04T11:34:35.095Z,15.92
2019-03-04T11:37:05.517Z,15.98
2019-03-04T11:39:54.803Z,16.25
2019-03-04T11:42:25.565Z,15.82
2019-03-04T11:44:55.976Z,15.22
2019-03-04T11:47:27.255Z,15.45
2019-03-04T11:49:58.848Z,15.34
2019-03-04T11:52:29.169Z,15.36
2019-03-04T11:54:59.820Z,15.88
2019-03-04T11:57:30.488Z,15.27
2019-03-04T12:00:01.359Z,15.50
2019-03-04T12:02:38.871Z,15.98
2019-03-04T12:05:05.330Z,15.49
2019-03-04T12:07:35.634Z,15.24
2019-03-04T12:10:08.939Z,15.65
2019-03-04T12:12:40.584Z,15.77
2019-03-04T12:15:13.714Z,16.29
2019-03-04T12:17:44.644Z,15.85
2019-03-04T12:20:15.833Z,16.02
2019-03-04T12:22:46.182Z,16.10
2019-03-04T12:25:16.933Z,16.63
2019-03-04T12:27:47.901Z,16.18
2019-03-04T12:30:19.276Z,16.24
2019-03-04T12:32:50.122Z,16.93
2019-03-04T12:35:20.819Z,17.26
2019-03-04T12:37:51.185Z,16.74
2019-03-04T12:40:21.737Z,16.54
2019-03-04T12:42:52.612Z,16.18
2019-03-04T12:45:33.465Z,16.53
2019-03-04T12:47:55.315Z,16.25
2019-03-04T12:50:26.334Z,16.67
2019-03-04T12:52:56.950Z,16.66
2019-03-04T12:55:27.543Z,16.89
2019-03-04T12:57:58.071Z,16.66
2019-03-04T13:00:29.216Z,16.72
2019-03-04T13:02:59.645Z,16.89
2019-03-04T13:05:30.330Z,16.78
2019-03-04T13:08:00.715Z,16.95
2019-03-04T13:10:31.879Z,16.62
2019-03-04T13:13:02.303Z,14.74
2019-03-04T13:15:32.958Z,17.14
2019-03-04T13:25:22.433Z,17.27
2019-03-04T13:27:52.710Z,17.14
2019-03-04T13:30:23.875Z,17.14
2019-03-04T13:32:54.417Z,17.49
2019-03-04T13:35:25.165Z,17.60
2019-03-04T13:37:55.817Z,17.53
2019-03-04T13:40:26.225Z,17.08
2019-03-04T13:42:56.515Z,17.10
2019-03-04T13:45:27.307Z,17.03
2019-03-04T13:47:57.899Z,17.20
2019-03-04T13:50:28.199Z,15.93
2019-03-04T13:52:59.035Z,17.76
2019-03-04T13:55:29.786Z,17.75
2019-03-04T13:58:00.278Z,17.52
2019-03-04T14:00:31.686Z,17.02
2019-03-04T14:03:02.134Z,17.27
2019-03-04T14:05:32.422Z,17.10
2019-03-04T14:08:03.301Z,17.51
2019-03-04T14:10:34.970Z,17.51
2019-03-04T14:13:05.673Z,17.43
2019-03-04T14:15:38.157Z,17.05
2019-03-04T14:18:08.867Z,17.42
2019-03-04T14:20:39.234Z,17.71
2019-03-04T14:23:10.189Z,17.18
2019-03-04T14:25:40.859Z,17.77
2019-03-04T14:28:11.436Z,17.77
2019-03-04T14:30:41.744Z,17.80
2019-03-04T14:33:12.075Z,18.39
2019-03-04T14:35:42.727Z,17.72
2019-03-04T14:38:13.285Z,18.23
2019-03-04T14:40:43.590Z,17.83
2019-03-04T14:43:14.410Z,18.11
2019-03-04T14:45:45.091Z,18.11
2019-03-04T14:48:15.506Z,18.05
2019-03-04T14:50:46.161Z,18.40
2019-03-04T14:53:16.786Z,17.62
2019-03-04T14:55:47.202Z,17.62
2019-03-04T14:58:17.735Z,18.00
2019-03-04T15:00:49.909Z,18.64
2019-03-04T15:03:23.590Z,18.25
2019-03-04T15:05:52.823Z,18.28
2019-03-04T15:08:23.242Z,17.61
2019-03-04T15:10:53.607Z,17.88
2019-03-04T15:13:24.343Z,18.06
2019-03-04T15:16:02.508Z,18.40
2019-03-04T15:18:26.937Z,18.40
2019-03-04T15:20:58.873Z,17.55
2019-03-04T15:23:29.191Z,17.64
2019-03-04T15:26:01.100Z,17.70
2019-03-04T15:28:31.841Z,18.01
2019-03-04T15:31:02.336Z,17.29
2019-03-04T15:33:32.934Z,17.20
2019-03-04T15:36:03.669Z,17.60
2019-03-04T15:38:34.460Z,17.26
2019-03-04T15:41:04.861Z,17.26
2019-03-04T15:43:35.630Z,16.99
2019-03-04T15:46:06.694Z,17.20
2019-03-04T15:48:36.986Z,17.13
2019-03-04T15:51:08.611Z,17.07
2019-03-04T15:53:39.557Z,17.49
2019-03-04T15:56:09.859Z,17.46
2019-03-04T15:58:40.461Z,15.95
2019-03-04T16:01:12.876Z,17.34
2019-03-04T16:03:43.203Z,17.57
2019-03-04T16:06:14.129Z,17.34
2019-03-04T16:08:44.405Z,17.34
2019-03-04T16:11:15.198Z,17.09
2019-03-04T16:13:52.997Z,16.92
2019-03-04T16:16:17.993Z,16.61
2019-03-04T16:18:48.625Z,15.33
2019-03-04T16:21:19.169Z,15.51
2019-03-04T16:23:49.764Z,15.77
2019-03-04T16:26:20.123Z,15.51
2019-03-04T16:28:50.814Z,15.36
2019-03-04T16:31:21.145Z,14.81
2019-03-04T16:33:51.416Z,15.24
2019-03-04T16:36:21.920Z,14.98
2019-03-04T16:38:52.550Z,14.96
2019-03-04T16:41:23.323Z,14.65
2019-03-04T16:43:53.627Z,14.57
2019-03-04T16:46:23.996Z,14.52
2019-03-04T16:48:54.809Z,14.80
2019-03-04T16:51:25.092Z,14.74
2019-03-04T16:53:55.520Z,14.51
2019-03-04T16:56:26.081Z,14.00
2019-03-04T16:58:56.554Z,14.03
2019-03-04T17:01:27.104Z,13.05
2019-03-04T17:03:57.480Z,13.67
2019-03-04T17:06:27.915Z,13.71
2019-03-04T17:08:58.333Z,13.58
2019-03-04T17:11:28.630Z,13.49
2019-03-04T17:13:59.051Z,13.62
2019-03-04T17:16:29.843Z,13.57
2019-03-04T17:19:00.407Z,13.49
2019-03-04T17:21:30.921Z,13.18
2019-03-04T17:24:01.946Z,13.33
2019-03-04T17:26:33.404Z,13.07
2019-03-04T17:29:03.850Z,12.51
2019-03-04T17:31:34.433Z,12.28
2019-03-04T17:34:05.462Z,12.52
2019-03-04T17:36:35.822Z,12.65
2019-03-04T17:39:07.372Z,12.92
2019-03-04T17:41:38.839Z,12.80
2019-03-04T17:44:09.624Z,12.71
2019-03-04T17:46:40.454Z,12.54
2019-03-04T17:49:10.879Z,12.50
2019-03-04T17:51:41.330Z,12.54
2019-03-04T17:54:11.859Z,12.44
2019-03-04T17:56:42.229Z,12.57
2019-03-04T17:59:12.760Z,10.60
2019-03-04T18:01:43.333Z,12.56
2019-03-04T18:04:13.653Z,12.79
2019-03-04T18:06:44.015Z,12.72
2019-03-04T18:09:15.366Z,12.91
2019-03-04T18:11:45.823Z,12.87
2019-03-04T18:14:16.497Z,12.88
2019-03-04T18:16:46.785Z,12.82
2019-03-04T18:19:17.264Z,12.86
2019-03-04T18:21:47.819Z,12.83
2019-03-04T18:24:18.209Z,12.78
2019-03-04T18:27:05.947Z,12.74
2019-03-04T18:30:13.777Z,12.72
2019-03-04T18:33:13.473Z,12.68
2019-03-04T18:36:20.943Z,10.74
2019-03-04T18:39:41.874Z,12.60
2019-03-04T18:42:49.759Z,12.57
2019-03-04T18:45:48.173Z,12.68
2019-03-04T18:48:50.888Z,12.53
2019-03-04T18:51:21.408Z,12.50
2019-03-04T18:53:52.956Z,12.51
2019-03-04T18:56:23.546Z,12.38
2019-03-04T18:58:53.826Z,12.40
2019-03-04T19:01:24.348Z,12.43
2019-03-04T19:03:54.676Z,12.38
2019-03-04T19:06:25.150Z,12.03
2019-03-04T19:08:56.019Z,12.30
2019-03-04T19:11:26.735Z,12.29
2019-03-04T19:13:57.250Z,12.16
2019-03-04T19:16:28.138Z,12.17
2019-03-04T19:18:58.789Z,11.92
2019-03-04T19:21:29.088Z,12.04
2019-03-04T19:23:59.803Z,11.76
2019-03-04T19:26:30.155Z,11.65
2019-03-04T19:29:00.999Z,11.90
2019-03-04T19:31:31.434Z,11.79
2019-03-04T19:34:01.814Z,11.58
2019-03-04T19:36:32.267Z,11.62
2019-03-04T19:39:04.532Z,11.71
2019-03-04T19:41:35.896Z,11.91
2019-03-04T19:44:06.504Z,11.70
2019-03-04T19:46:37.198Z,11.67
2019-03-04T19:49:08.800Z,11.67
2019-03-04T19:51:39.647Z,11.61
2019-03-04T19:54:10.429Z,11.61
2019-03-04T19:56:40.726Z,11.60
2019-03-04T19:59:11.051Z,11.52
2019-03-04T20:01:42.119Z,11.46
2019-03-04T20:04:12.776Z,11.52
2019-03-04T20:06:43.119Z,11.48
2019-03-04T20:09:14.095Z,11.42
2019-03-04T20:11:44.895Z,11.57
2019-03-04T20:14:15.454Z,11.45
2019-03-04T20:16:45.948Z,11.61
2019-03-04T20:19:16.981Z,11.63
2019-03-04T20:21:47.364Z,11.61
2019-03-04T20:24:18.135Z,11.71
2019-03-04T20:26:48.576Z,11.76
2019-03-04T20:29:19.153Z,11.88
2019-03-04T20:31:49.610Z,11.86
2019-03-04T20:34:20.222Z,11.84
2019-03-04T20:36:50.725Z,11.68
2019-03-04T20:39:21.873Z,11.66
2019-03-04T20:41:52.384Z,11.74
2019-03-04T20:44:23.888Z,11.68
2019-03-04T20:46:54.568Z,11.68
2019-03-04T20:49:24.980Z,11.62
2019-03-04T20:51:55.342Z,11.69
2019-03-04T20:54:26.132Z,11.49
2019-03-04T20:56:56.517Z,11.45
2019-03-04T20:59:27.281Z,11.51
2019-03-04T21:01:57.642Z,11.68
2019-03-04T21:04:28.066Z,11.65
2019-03-04T21:06:58.797Z,11.57
2019-03-04T21:09:29.722Z,11.70
2019-03-04T21:12:00.174Z,11.71
2019-03-04T21:14:30.810Z,11.87
2019-03-04T21:17:01.302Z,12.02
2019-03-04T21:19:31.706Z,11.96
2019-03-04T21:22:02.306Z,11.99
2019-03-04T21:24:33.098Z,12.05
2019-03-04T21:27:03.456Z,12.27
2019-03-04T21:30:33.168Z,12.28
2019-03-04T21:33:15.803Z,12.08
2019-03-04T21:36:16.928Z,11.99
2019-03-04T21:38:47.410Z,11.69
2019-03-04T21:42:00.674Z,11.42
2019-03-04T21:44:50.309Z,11.35
2019-03-04T21:47:27.996Z,11.03
2019-03-04T21:49:58.888Z,10.24
2019-03-04T21:52:42.199Z,9.95
2019-03-04T21:55:20.376Z,9.98
2019-03-04T21:57:54.431Z,9.47
2019-03-04T22:00:36.160Z,9.49
2019-03-04T22:03:39.127Z,9.40
2019-03-04T22:06:10.676Z,9.53
2019-03-04T22:08:41.315Z,9.64
2019-03-04T22:11:11.698Z,9.65
2019-03-04T22:13:42.731Z,9.72
2019-03-04T22:16:14.562Z,9.34
2019-03-04T22:18:45.268Z,9.23
2019-03-04T22:21:17.025Z,9.01
2019-03-04T22:23:47.949Z,9.13
2019-03-04T22:26:19.190Z,8.76
2019-03-04T22:28:49.781Z,8.83
2019-03-04T22:31:20.148Z,8.70
2019-03-04T22:33:50.473Z,8.64
2019-03-04T22:36:20.825Z,7.84
2019-03-04T22:38:51.470Z,8.31
2019-03-04T22:41:22.219Z,8.35
2019-03-04T22:43:53.171Z,8.51
2019-03-04T22:46:23.489Z,8.38
2019-03-04T22:48:54.044Z,8.23
2019-03-04T22:51:24.667Z,7.54
2019-03-04T22:53:55.134Z,7.90
2019-03-04T22:56:25.495Z,8.12
2019-03-04T22:58:56.074Z,8.03
2019-03-04T23:01:40.502Z,7.95
2019-03-04T23:04:25.393Z,7.60
2019-03-04T23:07:10.628Z,7.69
2019-03-04T23:10:00.134Z,7.30
2019-03-04T23:12:48.266Z,7.48
2019-03-04T23:15:22.324Z,7.71
2019-03-04T23:17:52.374Z,7.77
2019-03-04T23:20:23.317Z,7.55
2019-03-04T23:22:53.615Z,7.50
2019-03-04T23:25:24.134Z,7.35
2019-03-04T23:27:54.930Z,7.40
2019-03-04T23:30:25.301Z,7.32
2019-03-04T23:32:55.585Z,7.16
2019-03-04T23:35:26.384Z,7.37
2019-03-04T23:37:57.109Z,7.44
2019-03-04T23:40:27.741Z,7.34
2019-03-04T23:42:58.392Z,7.31
2019-03-04T23:45:28.722Z,7.16
2019-03-04T23:47:59.350Z,7.07
2019-03-04T23:50:29.901Z,6.42
2019-03-04T23:53:00.183Z,6.78
2019-03-04T23:55:30.984Z,7.03
2019-03-04T23:58:01.655Z,7.11
